Time;durP1;ratioP1;P1;durP2;ratioP2;P2;SDS_P1;SDS_P2;PMS_P1;PMS_P2;Temp;Humidity;BMP_temperature;BMP_pressure;BME280_temperature;BME280_humidity;BME280_pressure;Samples;Min_cycle;Max_cycle;Signal;HPM_P1;HPM_P2
2023/08/27 00:01:32;;;;;;;;;;;;;;;27.89;56.41;100026.59;6134637;23;19917;-85
2023/08/27 00:04:24;;;;;;;;;;;;;;;27.95;56.56;100035.97;6124797;23;19917;-84
2023/08/27 00:07:16;;;;;;;;;;;;;;;27.75;56.45;100029.88;6134479;23;20249;-84
2023/08/27 00:10:08;;;;;;;;;;;;;;;27.81;56.32;100040.03;6132087;23;19917;-86
2023/08/27 00:13:00;;;;;;;;;;;;;;;25.38;63.44;100026.78;6134668;23;20325;-87
2023/08/27 00:15:52;;;;;;;;;;;;;;;24.69;66.48;100022.25;6135839;23;20261;-87
2023/08/27 00:18:44;;;;;;;;;;;;;;;24.77;66.67;100022.91;6114517;23;19913;-85
2023/08/27 00:21:36;;;;;;;;;;;;;;;24.73;67.45;100005.53;6135535;23;19913;-85
2023/08/27 00:24:28;;;;;;;;;;;;;;;24.99;65.96;99994.25;6135058;23;19921;-84
2023/08/27 00:27:20;;;;;;;;;;;;;;;25.32;65.10;100006.25;6135227;23;20341;-84
2023/08/27 00:30:09;;;;;;;;;;;;;;;25.94;63.44;100016.31;6134791;23;19917;-87
2023/08/27 00:33:01;;;;;;;;;;;;;;;25.47;64.07;100017.81;6135499;23;19913;-88
2023/08/27 00:35:53;;;;;;;;;;;;;;;25.23;65.63;100028.31;6134995;23;20240;-87
2023/08/27 00:38:45;;;;;;;;;;;;;;;25.24;65.54;100035.47;6134756;23;19913;-88
2023/08/27 00:41:35;;;;;;;;;;;;;;;25.00;66.64;100025.63;6134798;23;19913;-88
2023/08/27 00:44:26;;;;;;;;;;;;;;;24.39;68.66;100026.03;6134766;23;19917;-87
2023/08/27 00:47:18;;;;;;;;;;;;;;;24.89;67.40;100033.44;6135008;23;19916;-87
2023/08/27 00:50:11;;;;;;;;;;;;;;;25.04;66.44;100037.50;6135417;23;20337;-87
2023/08/27 00:53:01;;;;;;;;;;;;;;;25.19;65.68;100040.75;6114683;23;19912;-88
2023/08/27 00:55:48;;;;;;;;;;;;;;;25.19;65.72;100035.97;6114782;23;19917;-88
2023/08/27 00:58:40;;;;;;;;;;;;;;;25.08;66.08;100036.19;6135518;23;19913;-87
2023/08/27 01:01:32;;;;;;;;;;;;;;;25.20;65.91;100045.88;6135121;23;19917;-87
2023/08/27 01:04:24;;;;;;;;;;;;;;;25.25;65.89;100041.78;6134696;23;19917;-87
2023/08/27 01:07:17;;;;;;;;;;;;;;;25.10;66.39;100033.75;6134594;23;19913;-87
2023/08/27 01:10:10;;;;;;;;;;;;;;;25.11;66.67;100026.97;6134441;23;19913;-87
2023/08/27 01:13:04;;;;;;;;;;;;;;;25.22;66.34;100026.75;6134308;23;20257;-88
2023/08/27 01:16:00;;;;;;;;;;;;;;;25.23;66.47;100028.31;6135073;23;19917;-88
2023/08/27 01:18:49;;;;;;;;;;;;;;;25.37;66.11;100019.63;6134816;23;19917;-87
2023/08/27 01:21:40;;;;;;;;;;;;;;;25.01;67.41;100013.28;6134428;23;20261;-87
2023/08/27 01:24:32;;;;;;;;;;;;;;;24.80;68.42;100022.06;6134969;23;20344;-86
2023/08/27 01:27:28;;;;;;;;;;;;;;;24.39;68.93;100008.56;6134862;23;19912;-86
2023/08/27 01:30:23;;;;;;;;;;;;;;;23.85;71.87;100015.06;6135484;23;20272;-86
2023/08/27 01:33:15;;;;;;;;;;;;;;;23.14;74.98;100009.78;6129696;23;19917;-86
2023/08/27 01:36:07;;;;;;;;;;;;;;;23.53;73.10;100008.44;6134760;23;19917;-88
2023/08/27 01:38:59;;;;;;;;;;;;;;;23.31;75.09;100024.59;6134534;23;19960;-87
2023/08/27 01:41:51;;;;;;;;;;;;;;;23.42;74.60;100028.78;6135373;23;19917;-87
2023/08/27 01:44:44;;;;;;;;;;;;;;;23.47;74.67;100027.56;6114710;23;19916;-87
2023/08/27 01:47:35;;;;;;;;;;;;;;;23.84;73.20;100038.47;6134011;23;19913;-87
2023/08/27 01:50:27;;;;;;;;;;;;;;;24.14;71.53;100048.69;6134921;23;20248;-88
2023/08/27 01:53:19;;;;;;;;;;;;;;;24.12;71.41;100061.44;6134726;23;19913;-87
2023/08/27 01:56:11;;;;;;;;;;;;;;;24.31;70.91;100059.94;6135989;23;19913;-87
2023/08/27 01:59:04;;;;;;;;;;;;;;;24.24;71.52;100074.75;6134545;23;19913;-87
2023/08/27 02:01:53;;;;;;;;;;;;;;;24.08;72.28;100082.91;6134877;23;19913;-87
2023/08/27 02:04:45;;;;;;;;;;;;;;;23.84;73.20;100082.13;6134722;23;19917;-87
2023/08/27 02:07:41;;;;;;;;;;;;;;;23.71;74.37;100062.50;6135282;23;19928;-87
2023/08/27 02:10:33;;;;;;;;;;;;;;;24.02;73.01;100062.41;6135367;23;19917;-87
2023/08/27 02:13:25;;;;;;;;;;;;;;;24.23;71.70;100073.16;6128348;23;19913;-87
2023/08/27 02:16:17;;;;;;;;;;;;;;;24.29;71.53;100065.91;6134805;23;19912;-87
2023/08/27 02:19:09;;;;;;;;;;;;;;;24.57;70.53;100062.63;6134537;23;19912;-87
2023/08/27 02:22:01;;;;;;;;;;;;;;;24.59;70.66;100037.94;6134796;23;20328;-87
2023/08/27 02:24:50;;;;;;;;;;;;;;;24.88;69.12;100037.44;6134621;23;20266;-87
2023/08/27 02:27:42;;;;;;;;;;;;;;;25.01;68.49;100053.03;6134353;23;19917;-87
2023/08/27 02:30:36;;;;;;;;;;;;;;;24.82;69.50;100026.00;6135353;23;19913;-86
2023/08/27 02:33:28;;;;;;;;;;;;;;;24.66;70.20;100023.91;6128693;23;19913;-88
2023/08/27 02:36:22;;;;;;;;;;;;;;;24.75;70.01;100033.69;6135438;23;19912;-88
2023/08/27 02:39:14;;;;;;;;;;;;;;;24.63;70.43;100046.25;6134973;23;19913;-87
2023/08/27 02:42:06;;;;;;;;;;;;;;;24.66;70.31;100040.59;6137225;23;19913;-87
2023/08/27 02:44:57;;;;;;;;;;;;;;;24.69;69.96;100036.16;6136418;23;20321;-87
2023/08/27 02:47:49;;;;;;;;;;;;;;;24.77;70.15;100047.94;6115960;23;19913;-88
2023/08/27 02:50:41;;;;;;;;;;;;;;;24.61;70.23;100041.09;6135695;23;19913;-84
2023/08/27 02:53:28;;;;;;;;;;;;;;;24.80;69.55;100044.31;6135100;23;19920;-84
2023/08/27 02:56:18;;;;;;;;;;;;;;;24.77;69.70;100045.16;6135617;23;19913;-84
2023/08/27 02:59:09;;;;;;;;;;;;;;;24.62;69.93;100031.56;6134844;23;19912;-84
2023/08/27 03:02:00;;;;;;;;;;;;;;;24.59;70.46;100034.38;6135119;23;19933;-84
2023/08/27 03:04:51;;;;;;;;;;;;;;;24.73;70.02;100016.66;6134840;23;19917;-84
2023/08/27 03:07:43;;;;;;;;;;;;;;;24.83;69.41;100010.88;6134859;23;19913;-84
2023/08/27 03:10:35;;;;;;;;;;;;;;;24.84;69.22;100012.41;6134863;23;19913;-84
2023/08/27 03:13:27;;;;;;;;;;;;;;;24.96;68.19;100027.72;6134532;23;19928;-83
2023/08/27 03:16:19;;;;;;;;;;;;;;;24.85;68.62;100030.69;6134923;23;19916;-84
2023/08/27 03:19:08;;;;;;;;;;;;;;;24.87;68.68;100027.47;6134603;23;19913;-84
2023/08/27 03:22:00;;;;;;;;;;;;;;;24.92;68.66;100018.66;6134611;23;20325;-84
2023/08/27 03:24:52;;;;;;;;;;;;;;;25.07;67.46;100025.50;6135213;23;19916;-84
2023/08/27 03:27:44;;;;;;;;;;;;;;;24.92;68.21;100018.66;6134903;23;19917;-84
2023/08/27 03:30:36;;;;;;;;;;;;;;;24.77;68.95;100029.28;6134395;23;20348;-84
2023/08/27 03:33:28;;;;;;;;;;;;;;;24.75;69.34;100028.91;6114425;23;19913;-84
2023/08/27 03:36:20;;;;;;;;;;;;;;;24.60;70.39;100031.19;6135249;23;19912;-86
2023/08/27 03:39:11;;;;;;;;;;;;;;;24.88;69.19;100034.66;6135363;23;19913;-86
2023/08/27 03:42:03;;;;;;;;;;;;;;;24.99;68.26;100030.41;6136691;23;19917;-86
2023/08/27 03:44:58;;;;;;;;;;;;;;;24.93;68.85;100009.91;6115320;23;20257;-85
2023/08/27 03:47:50;;;;;;;;;;;;;;;25.07;68.25;100003.22;6135651;23;20252;-87
2023/08/27 03:50:41;;;;;;;;;;;;;;;25.17;67.73;100024.47;6136431;23;19913;-87
2023/08/27 03:53:31;;;;;;;;;;;;;;;25.07;67.79;100036.63;6135974;23;20345;-87
2023/08/27 03:56:23;;;;;;;;;;;;;;;25.18;67.88;100003.78;6115293;23;19916;-86
2023/08/27 03:59:12;;;;;;;;;;;;;;;25.13;68.69;100013.44;6134881;23;19913;-86
2023/08/27 04:02:04;;;;;;;;;;;;;;;25.14;68.57;100009.41;6135351;23;19913;-86
2023/08/27 04:04:56;;;;;;;;;;;;;;;25.00;69.65;100011.72;6134893;23;19913;-85
2023/08/27 04:07:47;;;;;;;;;;;;;;;25.10;69.81;100030.97;6134720;23;19913;-85
2023/08/27 04:10:39;;;;;;;;;;;;;;;24.89;71.22;100048.09;6135347;23;19913;-85
2023/08/27 04:13:29;;;;;;;;;;;;;;;24.83;71.38;100046.25;6135105;23;20337;-87
2023/08/27 04:16:21;;;;;;;;;;;;;;;24.80;71.55;100047.88;6134995;23;19913;-87
2023/08/27 04:19:13;;;;;;;;;;;;;;;24.97;71.61;100048.75;6133850;23;19917;-84
2023/08/27 04:22:03;;;;;;;;;;;;;;;25.08;70.82;100038.97;6134000;23;19917;-87
2023/08/27 04:25:10;;;;;;;;;;;;;;;25.20;70.02;100012.47;6134997;23;19912;-87
2023/08/27 04:27:57;;;;;;;;;;;;;;;25.09;70.67;100007.13;6135370;23;20325;-87
2023/08/27 04:30:49;;;;;;;;;;;;;;;25.14;70.31;99997.53;6134827;23;19913;-87
2023/08/27 04:33:43;;;;;;;;;;;;;;;25.37;69.73;100025.22;6123812;23;22072;-85
2023/08/27 04:36:35;;;;;;;;;;;;;;;25.48;69.19;100011.03;6134076;23;20261;-84
2023/08/27 04:39:27;;;;;;;;;;;;;;;25.58;69.09;100010.03;6134241;23;19913;-84
2023/08/27 04:42:19;;;;;;;;;;;;;;;25.83;68.38;100026.13;6133900;23;20345;-83
2023/08/27 04:45:12;;;;;;;;;;;;;;;25.81;68.61;100015.44;6132489;23;20261;-81
2023/08/27 04:48:02;;;;;;;;;;;;;;;25.82;68.94;100019.00;6133543;23;19913;-81
2023/08/27 04:50:54;;;;;;;;;;;;;;;25.84;69.16;100019.34;6132747;23;19912;-81
2023/08/27 04:53:46;;;;;;;;;;;;;;;25.87;68.60;100024.81;6132816;23;19916;-80
2023/08/27 04:56:33;;;;;;;;;;;;;;;26.09;67.90;100021.50;6134755;23;19913;-83
2023/08/27 04:59:24;;;;;;;;;;;;;;;26.35;66.95;100015.66;6134728;23;19913;-84
2023/08/27 05:02:14;;;;;;;;;;;;;;;26.21;67.12;100007.63;6132166;23;20257;-83
2023/08/27 05:05:03;;;;;;;;;;;;;;;26.38;66.46;100005.63;6132449;23;20285;-83
2023/08/27 05:07:55;;;;;;;;;;;;;;;26.38;66.15;100008.41;6133559;23;20337;-83
2023/08/27 05:10:47;;;;;;;;;;;;;;;26.55;66.08;100012.72;6133772;23;19912;-84
2023/08/27 05:13:37;;;;;;;;;;;;;;;26.73;65.10;100020.56;6133743;23;20253;-85
2023/08/27 05:16:29;;;;;;;;;;;;;;;26.79;64.49;100018.81;6133412;23;20248;-84
2023/08/27 05:19:21;;;;;;;;;;;;;;;26.66;65.07;100013.22;6133415;23;19913;-84
2023/08/27 05:22:10;;;;;;;;;;;;;;;26.54;65.89;100021.50;6133490;23;19917;-84
2023/08/27 05:25:03;;;;;;;;;;;;;;;26.40;66.32;100019.91;6133563;23;19912;-84
2023/08/27 05:27:55;;;;;;;;;;;;;;;26.44;66.20;100019.81;6113054;23;19916;-84
2023/08/27 05:30:47;;;;;;;;;;;;;;;26.32;67.27;100004.56;6133626;23;19916;-84
2023/08/27 05:33:39;;;;;;;;;;;;;;;26.15;67.53;99998.25;6133366;23;19913;-84
2023/08/27 05:36:29;;;;;;;;;;;;;;;26.25;67.49;99997.22;6133548;23;20253;-84
2023/08/27 05:39:21;;;;;;;;;;;;;;;26.33;68.44;99981.84;6112910;23;20337;-84
2023/08/27 05:42:10;;;;;;;;;;;;;;;26.43;66.90;99968.03;6132819;23;20333;-83
2023/08/27 05:45:00;;;;;;;;;;;;;;;26.61;66.16;99971.13;6113301;23;19917;-83
2023/08/27 05:47:51;;;;;;;;;;;;;;;26.71;65.89;99965.22;6133497;23;19912;-84
2023/08/27 05:50:44;;;;;;;;;;;;;;;26.78;65.83;99967.00;6136694;23;19920;-84
2023/08/27 05:53:34;;;;;;;;;;;;;;;26.78;65.21;99961.44;6133474;23;20248;-84
2023/08/27 05:56:26;;;;;;;;;;;;;;;26.87;65.30;99953.22;6134034;23;20248;-84
2023/08/27 05:59:15;;;;;;;;;;;;;;;26.97;65.00;99957.69;6133085;23;19916;-84
2023/08/27 06:02:03;;;;;;;;;;;;;;;27.12;64.65;99958.06;6133131;23;19912;-83
2023/08/27 06:04:52;;;;;;;;;;;;;;;27.23;64.14;99961.28;6133546;23;19913;-83
2023/08/27 06:07:39;;;;;;;;;;;;;;;27.23;64.13;99956.47;6113204;23;20252;-84
2023/08/27 06:10:31;;;;;;;;;;;;;;;27.28;64.08;99960.72;6133501;23;19913;-84
2023/08/27 06:13:23;;;;;;;;;;;;;;;27.56;63.03;99973.03;6112988;23;19921;-84
2023/08/27 06:16:15;;;;;;;;;;;;;;;27.73;62.50;99974.44;6135344;23;19913;-84
2023/08/27 06:19:05;;;;;;;;;;;;;;;27.79;61.92;99983.81;6135040;23;19913;-84
2023/08/27 06:21:57;;;;;;;;;;;;;;;27.88;61.79;99992.31;6135272;23;19913;-84
2023/08/27 06:24:49;;;;;;;;;;;;;;;27.93;61.50;99996.53;6136354;23;19920;-84
2023/08/27 06:27:37;;;;;;;;;;;;;;;27.99;60.96;99992.69;6135222;23;20341;-83
2023/08/27 06:30:29;;;;;;;;;;;;;;;27.92;60.80;99995.75;6135443;23;19913;-85
2023/08/27 06:33:19;;;;;;;;;;;;;;;27.85;61.44;99987.59;6135219;23;19913;-85
2023/08/27 06:36:11;;;;;;;;;;;;;;;27.83;60.95;99984.50;6135624;23;19921;-85
2023/08/27 06:39:03;;;;;;;;;;;;;;;27.50;62.39;99985.97;6135002;23;19913;-85
2023/08/27 06:41:52;;;;;;;;;;;;;;;27.73;61.68;99994.00;6135857;23;20248;-86
2023/08/27 06:44:44;;;;;;;;;;;;;;;27.93;60.98;99997.31;6135061;23;19921;-84
2023/08/27 06:47:36;;;;;;;;;;;;;;;27.87;60.86;99985.16;6135428;23;19913;-84
2023/08/27 06:50:28;;;;;;;;;;;;;;;28.02;60.78;99980.63;6135261;23;19913;-84
2023/08/27 06:53:20;;;;;;;;;;;;;;;27.98;60.64;99976.41;6135056;23;20248;-84
2023/08/27 06:56:12;;;;;;;;;;;;;;;27.92;61.11;99976.19;6135789;23;19912;-83
2023/08/27 06:59:02;;;;;;;;;;;;;;;28.01;60.60;99976.25;6135031;23;19917;-85
2023/08/27 07:01:54;;;;;;;;;;;;;;;28.12;60.46;99978.72;6115088;23;20253;-86
2023/08/27 07:04:43;;;;;;;;;;;;;;;28.43;59.20;99981.63;6135314;23;20257;-87
2023/08/27 07:07:33;;;;;;;;;;;;;;;28.56;59.03;99973.94;6135507;23;19913;-86
2023/08/27 07:10:23;;;;;;;;;;;;;;;28.60;59.05;99968.97;6135252;23;19913;-86
2023/08/27 07:13:12;;;;;;;;;;;;;;;29.05;57.35;99971.31;6134987;23;19917;-85
2023/08/27 07:16:01;;;;;;;;;;;;;;;30.18;54.09;99961.00;6135123;23;19916;-85
2023/08/27 07:18:53;;;;;;;;;;;;;;;33.93;44.42;99971.84;6134498;23;19917;-86
2023/08/27 07:21:45;;;;;;;;;;;;;;;35.63;39.82;99963.19;6135214;23;19917;-85
2023/08/27 07:24:37;;;;;;;;;;;;;;;37.50;35.70;99965.34;6135816;23;19917;-86
2023/08/27 07:27:29;;;;;;;;;;;;;;;38.14;33.78;99971.88;6135523;23;20310;-86
2023/08/27 07:30:18;;;;;;;;;;;;;;;37.97;33.41;99972.69;6136514;23;19913;-87
2023/08/27 07:33:12;;;;;;;;;;;;;;;37.19;34.01;99960.75;6137622;23;20249;-86
2023/08/27 07:36:02;;;;;;;;;;;;;;;34.23;39.16;99957.63;6136847;23;19913;-83
2023/08/27 07:38:51;;;;;;;;;;;;;;;32.12;43.69;99958.59;6135054;23;20341;-85
2023/08/27 07:41:44;;;;;;;;;;;;;;;31.49;45.60;99956.19;6111856;23;20257;-83
2023/08/27 07:44:36;;;;;;;;;;;;;;;30.86;46.98;99963.59;6113373;23;20256;-82
2023/08/27 07:47:20;;;;;;;;;;;;;;;30.39;47.90;99959.28;6131472;23;19921;-82
2023/08/27 07:50:12;;;;;;;;;;;;;;;30.27;48.24;99954.63;6133501;23;19913;-83
2023/08/27 07:53:04;;;;;;;;;;;;;;;30.14;48.12;99949.19;6133614;23;19917;-82
2023/08/27 07:55:56;;;;;;;;;;;;;;;30.10;47.54;99956.19;6133766;23;19917;-82
2023/08/27 07:58:48;;;;;;;;;;;;;;;30.08;47.18;99955.88;6153434;23;19917;-83
2023/08/27 08:01:38;;;;;;;;;;;;;;;30.21;46.89;99959.31;6132842;23;19913;-83
2023/08/27 08:04:28;;;;;;;;;;;;;;;30.12;47.29;99965.69;6133509;23;20337;-82
2023/08/27 08:07:20;;;;;;;;;;;;;;;29.97;48.08;99975.97;6113597;23;19913;-82
2023/08/27 08:10:08;;;;;;;;;;;;;;;29.79;48.56;99970.31;6134710;23;19917;-86
2023/08/27 08:13:00;;;;;;;;;;;;;;;29.52;49.07;99970.25;6132647;23;19912;-86
2023/08/27 08:15:50;;;;;;;;;;;;;;;29.68;48.79;99972.78;6134855;23;19912;-87
2023/08/27 08:18:42;;;;;;;;;;;;;;;29.74;48.34;99977.31;6137377;23;19917;-85
2023/08/27 08:21:34;;;;;;;;;;;;;;;29.80;48.43;99977.47;6135666;23;19916;-84
2023/08/27 08:24:26;;;;;;;;;;;;;;;29.79;48.00;99972.34;6127796;23;19996;-80
2023/08/27 08:27:18;;;;;;;;;;;;;;;29.65;48.55;99959.69;6135011;23;19913;-81
2023/08/27 08:30:10;;;;;;;;;;;;;;;29.64;48.46;99956.13;6135669;23;19913;-83
2023/08/27 08:32:59;;;;;;;;;;;;;;;29.65;47.85;99963.28;6130059;23;20360;-81
2023/08/27 08:35:51;;;;;;;;;;;;;;;29.77;46.67;99969.97;6135991;23;19913;-82
2023/08/27 08:38:43;;;;;;;;;;;;;;;29.78;46.54;99974.34;6134055;23;19917;-79
2023/08/27 08:41:33;;;;;;;;;;;;;;;29.76;46.76;99966.41;6133599;23;19912;-83
2023/08/27 08:44:30;;;;;;;;;;;;;;;29.74;46.32;99977.31;6130981;23;20332;-85
2023/08/27 08:47:21;;;;;;;;;;;;;;;29.78;45.46;99988.38;6132737;23;19913;-84
2023/08/27 08:50:16;;;;;;;;;;;;;;;29.94;44.70;99993.72;6134342;23;19917;-84
2023/08/27 08:53:11;;;;;;;;;;;;;;;29.55;45.65;99998.13;6134550;23;19917;-83
2023/08/27 08:56:06;;;;;;;;;;;;;;;29.58;45.45;99993.63;6133694;23;19917;-84
2023/08/27 08:58:58;;;;;;;;;;;;;;;29.58;44.32;100002.81;6134759;23;19916;-82
2023/08/27 09:01:50;;;;;;;;;;;;;;;29.48;44.49;100006.81;6135305;23;19913;-80
2023/08/27 09:04:42;;;;;;;;;;;;;;;29.47;44.58;100013.66;6113591;23;19917;-82
2023/08/27 09:07:35;;;;;;;;;;;;;;;29.39;44.82;100004.00;6136464;23;19917;-84
2023/08/27 09:10:27;;;;;;;;;;;;;;;29.53;44.50;100006.22;6138500;23;19913;-83
2023/08/27 09:13:20;;;;;;;;;;;;;;;29.67;43.97;100027.25;6130568;23;19921;-82
2023/08/27 09:16:08;;;;;;;;;;;;;;;29.54;44.27;100024.59;6134312;23;19913;-82
2023/08/27 09:19:00;;;;;;;;;;;;;;;29.33;44.80;100043.03;6134555;23;19917;-82
2023/08/27 09:21:52;;;;;;;;;;;;;;;29.44;44.71;100030.63;6130727;23;19912;-82
2023/08/27 09:24:41;;;;;;;;;;;;;;;29.52;43.25;100043.88;6135823;23;19921;-82
2023/08/27 09:27:34;;;;;;;;;;;;;;;29.52;44.56;100059.91;6134390;23;19936;-82
2023/08/27 09:30:26;;;;;;;;;;;;;;;29.66;43.41;100064.97;6133591;23;19913;-81
2023/08/27 09:33:18;;;;;;;;;;;;;;;29.55;44.25;100050.59;6110516;23;19917;-82
2023/08/27 09:36:11;;;;;;;;;;;;;;;29.66;44.28;100062.91;6131951;23;19940;-81
2023/08/27 09:39:02;;;;;;;;;;;;;;;29.74;44.49;100055.81;6132088;23;19913;-81
2023/08/27 09:41:52;;;;;;;;;;;;;;;29.89;44.07;100067.25;6131742;23;20248;-81
2023/08/27 09:44:47;;;;;;;;;;;;;;;29.97;43.98;100056.53;6132516;23;19925;-82
2023/08/27 09:47:36;;;;;;;;;;;;;;;30.05;44.17;100052.16;6132892;23;19913;-82
2023/08/27 09:50:29;;;;;;;;;;;;;;;30.25;43.37;100046.91;6132453;23;19920;-82
2023/08/27 09:53:19;;;;;;;;;;;;;;;30.01;42.17;100046.72;6133058;23;19913;-84
2023/08/27 09:56:08;;;;;;;;;;;;;;;30.06;40.91;100051.72;6131631;23;19921;-82
2023/08/27 09:59:06;;;;;;;;;;;;;;;30.06;40.34;100042.50;6131194;23;19913;-84
2023/08/27 10:01:58;;;;;;;;;;;;;;;30.01;41.33;100045.94;6133046;23;20344;-83
2023/08/27 10:04:54;;;;;;;;;;;;;;;30.14;40.53;100041.75;6134406;23;19917;-82
2023/08/27 10:07:53;;;;;;;;;;;;;;;30.11;40.98;100048.28;6135010;23;20336;-83
2023/08/27 10:10:46;;;;;;;;;;;;;;;29.71;42.67;100051.09;6134464;23;19913;-83
2023/08/27 10:13:36;;;;;;;;;;;;;;;29.54;42.84;100052.63;6133600;23;19913;-84
2023/08/27 10:16:29;;;;;;;;;;;;;;;29.50;42.95;100054.00;6133803;23;19913;-85
2023/08/27 10:19:18;;;;;;;;;;;;;;;29.52;42.40;100041.06;6109446;23;19921;-82
2023/08/27 10:22:10;;;;;;;;;;;;;;;29.61;42.99;100045.97;6133664;23;19932;-82
2023/08/27 10:25:03;;;;;;;;;;;;;;;29.42;45.60;100033.88;6153760;23;19913;-82
2023/08/27 10:27:55;;;;;;;;;;;;;;;29.56;47.01;100038.91;6133240;23;20261;-82
2023/08/27 10:30:47;;;;;;;;;;;;;;;29.75;47.31;100036.97;6113053;23;19913;-82
2023/08/27 10:33:39;;;;;;;;;;;;;;;29.87;47.63;100024.81;6134696;23;19912;-85
2023/08/27 10:36:34;;;;;;;;;;;;;;;29.77;47.11;100023.25;6134979;23;19912;-83
2023/08/27 10:39:24;;;;;;;;;;;;;;;29.66;47.26;100020.88;6133702;23;19913;-85
2023/08/27 10:42:28;;;;;;;;;;;;;;;29.55;46.85;100003.75;6112619;23;20273;-83
2023/08/27 10:45:21;;;;;;;;;;;;;;;29.67;45.75;100005.63;6133560;23;19916;-84
2023/08/27 10:48:23;;;;;;;;;;;;;;;29.90;44.39;99995.91;6134062;23;19912;-84
2023/08/27 10:51:13;;;;;;;;;;;;;;;29.78;45.29;99991.16;6131586;23;19921;-84
2023/08/27 10:54:05;;;;;;;;;;;;;;;29.89;45.04;99994.34;6133476;23;20682;-83
2023/08/27 10:56:55;;;;;;;;;;;;;;;29.54;45.66;99982.56;6133233;23;19913;-85
2023/08/27 10:59:44;;;;;;;;;;;;;;;29.18;45.49;99985.97;6132775;23;19916;-85
2023/08/27 11:02:53;;;;;;;;;;;;;;;29.27;44.87;99999.22;6134825;23;19917;-85
2023/08/27 11:05:45;;;;;;;;;;;;;;;29.42;45.01;99991.84;6134543;23;19917;-85
2023/08/27 11:08:41;;;;;;;;;;;;;;;29.29;45.37;99974.34;6134439;23;19912;-85
2023/08/27 11:11:31;;;;;;;;;;;;;;;29.33;45.46;99981.41;6136066;23;20357;-84
2023/08/27 11:14:23;;;;;;;;;;;;;;;29.40;45.03;99982.38;6134706;23;19913;-85
2023/08/27 11:17:13;;;;;;;;;;;;;;;29.38;45.32;99982.81;6134707;23;20292;-86
2023/08/27 11:20:19;;;;;;;;;;;;;;;29.43;44.73;99979.41;6134693;23;19913;-84
2023/08/27 11:23:11;;;;;;;;;;;;;;;29.39;44.97;99975.19;6131407;23;19913;-84
2023/08/27 11:26:03;;;;;;;;;;;;;;;29.26;45.21;99978.84;6134994;23;19917;-84
2023/08/27 11:28:55;;;;;;;;;;;;;;;29.46;44.93;99975.66;6133746;23;19913;-85
2023/08/27 11:31:41;;;;;;;;;;;;;;;29.41;44.95;99970.66;6134079;23;20333;-85
2023/08/27 11:34:35;;;;;;;;;;;;;;;29.30;45.58;99978.72;6134199;23;19913;-84
2023/08/27 11:37:31;;;;;;;;;;;;;;;29.30;45.49;99973.13;6134660;23;19912;-84
2023/08/27 11:40:23;;;;;;;;;;;;;;;29.22;45.73;99975.41;6134375;23;19913;-82
2023/08/27 11:43:24;;;;;;;;;;;;;;;29.08;45.96;99980.78;6130000;23;20241;-83
2023/08/27 11:46:21;;;;;;;;;;;;;;;29.04;45.65;99986.53;6134206;23;19936;-82
2023/08/27 11:49:12;;;;;;;;;;;;;;;28.96;45.54;99993.63;6135139;23;19913;-86
2023/08/27 11:52:00;;;;;;;;;;;;;;;28.94;45.54;99995.34;6134960;23;19913;-86
2023/08/27 11:54:52;;;;;;;;;;;;;;;28.97;46.41;100000.00;6134839;23;19917;-79
2023/08/27 11:57:42;;;;;;;;;;;;;;;29.04;45.76;100016.56;6154234;23;19913;-79
2023/08/27 12:00:29;;;;;;;;;;;;;;;29.07;45.78;100029.63;6135034;23;19913;-79
2023/08/27 12:03:21;;;;;;;;;;;;;;;29.02;46.38;100027.41;6133830;23;20352;-79
2023/08/27 12:06:14;;;;;;;;;;;;;;;28.97;46.22;100036.41;6134116;23;19917;-79
2023/08/27 12:09:01;;;;;;;;;;;;;;;28.61;46.00;100032.09;6133404;23;20238;-78
2023/08/27 12:11:50;;;;;;;;;;;;;;;28.15;48.16;100019.75;6135004;23;19917;-81
2023/08/27 12:14:40;;;;;;;;;;;;;;;28.06;47.48;100019.63;6084491;23;19914;-81
2023/08/27 12:17:33;;;;;;;;;;;;;;;27.82;48.18;100010.88;6085502;23;19914;-84
2023/08/27 12:20:31;;;;;;;;;;;;;;;27.72;48.33;100027.97;6084338;23;19914;-81
2023/08/27 12:23:20;;;;;;;;;;;;;;;27.77;48.27;100030.22;6084565;23;19914;-82
2023/08/27 12:26:14;;;;;;;;;;;;;;;27.72;48.70;100034.34;6084270;23;19918;-83
2023/08/27 12:29:07;;;;;;;;;;;;;;;27.85;48.61;100039.91;6105031;23;19909;-75
2023/08/27 12:31:59;;;;;;;;;;;;;;;28.00;47.89;100052.97;6084023;23;20337;-75
2023/08/27 12:34:50;;;;;;;;;;;;;;;28.04;47.86;100039.66;6083292;23;19909;-76
2023/08/27 12:37:42;;;;;;;;;;;;;;;28.00;47.67;100049.38;6104183;23;19909;-78
2023/08/27 12:40:34;;;;;;;;;;;;;;;27.97;46.78;100053.09;6081531;23;19913;-77
2023/08/27 12:43:26;;;;;;;;;;;;;;;27.89;48.25;100048.97;6082844;23;19909;-76
2023/08/27 12:46:18;;;;;;;;;;;;;;;27.78;48.59;100048.56;6104813;23;19913;-76
2023/08/27 12:49:13;;;;;;;20.48;3.75;;;;;;;26.80;51.75;100065.03;6103113;23;20364;-81
2023/08/27 12:52:04;;;;;;;;;;;;;;;26.85;51.93;100056.09;6083721;23;20025;-79
2023/08/27 12:54:58;;;;;;;36.60;5.50;;;;;;;26.51;53.27;100051.09;6081675;23;20375;-79
2023/08/27 12:57:50;;;;;;;23.55;5.53;;;;;;;26.36;54.34;100035.97;6102799;23;20365;-81
2023/08/27 13:00:45;;;;;;;18.10;4.53;;;;;;;26.42;54.47;100025.03;6082739;23;20021;-79
2023/08/27 13:03:40;;;;;;;10.05;4.05;;;;;;;26.21;55.31;100026.38;6098389;23;20026;-80
2023/08/27 13:06:29;;;;;;;10.23;4.47;;;;;;;26.09;56.11;99985.28;6102987;23;20025;-80
2023/08/27 13:09:21;;;;;;;15.70;4.38;;;;;;;25.80;57.41;99983.22;6102466;23;20033;-80
2023/08/27 13:12:13;;;;;;;9.75;4.38;;;;;;;25.80;59.38;99988.78;6103369;23;20025;-81
2023/08/27 13:15:06;;;;;;;13.15;3.95;;;;;;;25.55;62.03;99971.91;6132178;23;20021;-81
2023/08/27 13:17:58;;;;;;;6.85;4.38;;;;;;;25.67;61.35;99974.00;6130959;23;20029;-81
2023/08/27 13:20:50;;;;;;;13.95;5.55;;;;;;;25.81;62.41;99970.06;6132584;23;20796;-79
2023/08/27 13:23:40;;;;;;;;;;;;;;;25.61;63.44;99949.88;6132455;23;20480;-83
2023/08/27 13:26:36;;;;;;;;;;;;;;;26.57;59.99;99901.47;6133180;23;20257;-82
2023/08/27 13:29:26;;;;;;;;;;;;;;;26.60;59.61;99899.81;6131302;23;19913;-82
2023/08/27 13:32:15;;;;;;;;;;;;;;;26.70;59.27;99885.56;6133281;23;19912;-83
2023/08/27 13:35:05;;;;;;;;;;;;;;;26.78;59.53;99861.00;6133179;23;19913;-83
2023/08/27 13:37:57;;;;;;;;;;;;;;;26.77;59.88;99849.06;6153407;23;19926;-83
2023/08/27 13:40:49;;;;;;;;;;;;;;;26.87;59.31;99819.28;6133098;23;19913;-82
2023/08/27 13:43:41;;;;;;;;;;;;;;;26.66;60.66;99826.31;6133140;23;19912;-83
2023/08/27 13:46:33;;;;;;;;;;;;;;;26.69;60.43;99844.16;6134206;23;19917;-82
2023/08/27 13:49:25;;;;;;;;;;;;;;;26.89;60.10;99874.63;6132884;23;19913;-83
2023/08/27 13:52:18;;;;;;;;;;;;;;;27.05;59.02;99888.47;6133851;23;19913;-83
2023/08/27 13:55:10;;;;;;;;;;;;;;;27.17;58.92;99882.13;6134030;23;19912;-83
2023/08/27 13:58:02;;;;;;;;;;;;;;;27.27;58.37;99869.81;6135287;23;19913;-84
2023/08/27 14:00:54;;;;;;;;;;;;;;;27.30;58.70;99846.56;6134051;23;19912;-83
2023/08/27 14:03:46;;;;;;;;;;;;;;;27.22;58.80;99818.13;6133786;23;20521;-82
2023/08/27 14:06:35;;;;;;;;;;;;;;;27.15;59.67;99782.06;6133595;23;19917;-82
2023/08/27 14:09:25;;;;;;;;;;;;;;;27.02;60.36;99775.72;6133379;23;20333;-82
2023/08/27 14:12:17;;;;;;;;;;;;;;;27.12;59.92;99794.13;6133166;23;19912;-82
2023/08/27 14:15:09;;;;;;;;;;;;;;;27.17;59.70;99818.66;6133263;23;19912;-81
2023/08/27 14:18:01;;;;;;;;;;;;;;;27.26;59.16;99857.09;6133515;23;20345;-82
2023/08/27 14:20:50;;;;;;;;;;;;;;;27.40;58.51;99878.94;6133138;23;19912;-83
2023/08/27 14:23:40;;;;;;;;;;;;;;;27.52;57.60;99885.78;6133946;23;19913;-82
2023/08/27 14:26:31;;;;;;;;;;;;;;;27.52;58.06;99878.16;6133738;23;19921;-81
2023/08/27 14:29:21;;;;;;;;;;;;;;;27.46;57.94;99865.97;6133350;23;19916;-82
2023/08/27 14:32:13;;;;;;;;;;;;;;;27.43;58.36;99852.13;6113648;23;20329;-83
2023/08/27 14:35:05;;;;;;;;;;;;;;;27.44;58.13;99842.50;6134064;23;19917;-85
2023/08/27 14:37:57;;;;;;;;;;;;;;;27.45;58.20;99835.69;6135489;23;19913;-83
2023/08/27 14:40:49;;;;;;;;;;;;;;;27.35;59.04;99836.84;6135635;23;19913;-83
2023/08/27 14:43:38;;;;;;;;;;;;;;;27.38;58.62;99847.13;6130100;23;20291;-83